Time;durP1;ratioP1;P1;durP2;ratioP2;P2;SDS_P1;SDS_P2;PMS_P1;PMS_P2;Temp;Humidity;BMP_temperature;BMP_pressure;BME280_temperature;BME280_humidity;BME280_pressure;Samples;Min_cycle;Max_cycle;Signal;HPM_P1;HPM_P2
2022/09/20 00:00:33;;;;;;;2.55;2.03;;;19.30;99.90;;;;;;10247702;29;20293;-82
2022/09/20 00:05:38;;;;;;;2.00;1.77;;;19.20;99.90;;;;;;10229884;28;20293;-82
2022/09/20 00:10:41;;;;;;;2.60;1.80;;;19.40;99.90;;;;;;10246592;28;20237;-82
2022/09/20 00:15:45;;;;;;;3.38;2.15;;;19.20;99.90;;;;;;10246902;28;20230;-82
2022/09/20 00:20:49;;;;;;;2.28;1.73;;;19.60;99.90;;;;;;10246957;29;20688;-82
2022/09/20 00:25:57;;;;;;;2.67;1.63;;;19.30;99.90;;;;;;10235122;29;20238;-82
2022/09/20 00:31:00;;;;;;;2.75;2.05;;;19.40;99.90;;;;;;10255843;29;20273;-82
2022/09/20 00:36:02;;;;;;;2.15;1.95;;;19.50;99.90;;;;;;10237580;29;20665;-82
2022/09/20 00:41:05;;;;;;;2.83;2.40;;;19.50;99.90;;;;;;10254709;28;20246;-82
2022/09/20 00:46:33;;;;;;;2.63;1.77;;;19.60;99.90;;;;;;10254504;29;20744;-82
2022/09/20 00:51:38;;;;;;;2.83;1.35;;;19.60;99.90;;;;;;10236483;29;20206;-82
2022/09/20 00:56:43;;;;;;;2.15;1.95;;;19.70;99.90;;;;;;10254366;29;20317;-82
2022/09/20 01:01:51;;;;;;;2.38;1.58;;;19.70;99.90;;;;;;10253937;28;20681;-82
2022/09/20 01:06:59;;;;;;;2.40;1.88;;;19.50;99.90;;;;;;10253891;29;20281;-82
2022/09/20 01:12:08;;;;;;;1.67;1.45;;;19.50;99.90;;;;;;10254633;28;20585;-82
2022/09/20 01:17:11;;;;;;;1.98;1.27;;;19.60;99.90;;;;;;10253494;29;20277;-82
2022/09/20 01:22:32;;;;;;;2.25;1.60;;;19.60;99.90;;;;;;10253118;29;20313;-82
2022/09/20 01:27:39;;;;;;;5.80;4.30;;;19.70;99.90;;;;;;10234956;29;20684;-82
2022/09/20 01:32:59;;;;;;;1.48;1.23;;;19.50;99.90;;;;;;10234129;29;20755;-82
2022/09/20 01:38:32;;;;;;;2.13;1.48;;;19.40;99.90;;;;;;10252217;28;20321;-81
2022/09/20 01:43:57;;;;;;;2.83;1.85;;;19.40;99.90;;;;;;10252728;29;20254;-82
2022/09/20 01:49:24;;;;;;;2.72;1.65;;;19.60;99.90;;;;;;10252621;28;20339;-82
2022/09/20 01:55:04;;;;;;;2.65;2.05;;;19.30;99.90;;;;;;10234320;28;20210;-82
2022/09/20 02:00:20;;;;;;;1.80;1.48;;;19.20;99.90;;;;;;10251569;29;20242;-82
2022/09/20 02:05:25;;;;;;;1.60;1.40;;;19.40;99.90;;;;;;10251423;29;20580;-82
2022/09/20 02:10:54;;;;;;;1.58;1.35;;;19.50;99.90;;;;;;10234416;29;20234;-82
2022/09/20 02:16:00;;;;;;;2.85;1.75;;;19.40;99.90;;;;;;10234263;29;20265;-82
2022/09/20 02:21:10;;;;;;;1.98;1.52;;;19.50;99.90;;;;;;10251975;29;20321;-82
2022/09/20 02:26:27;;;;;;;1.58;1.48;;;19.10;99.90;;;;;;10250548;29;20748;-82
2022/09/20 02:31:56;;;;;;;1.95;1.75;;;19.20;99.90;;;;;;10233836;29;20296;-82
2022/09/20 02:37:36;;;;;;;2.97;1.80;;;19.30;99.90;;;;;;10235690;29;20270;-82
2022/09/20 02:42:59;;;;;;;4.73;2.07;;;19.30;99.90;;;;;;10250078;29;20297;-82
2022/09/20 02:48:05;;;;;;;1.48;1.10;;;19.20;99.90;;;;;;10249592;28;20614;-82
2022/09/20 02:53:33;;;;;;;3.07;2.67;;;19.10;99.90;;;;;;10249630;29;20270;-82
2022/09/20 02:59:05;;;;;;;2.77;1.90;;;18.80;99.90;;;;;;10231778;29;20202;-82
2022/09/20 03:04:23;;;;;;;3.92;1.77;;;19.10;99.90;;;;;;10244883;29;20281;-82
2022/09/20 03:09:34;;;;;;;2.22;1.50;;;19.20;99.90;;;;;;10248564;29;20650;-82
2022/09/20 03:14:44;;;;;;;5.38;2.85;;;19.00;99.90;;;;;;10232215;29;20198;-82
2022/09/20 03:19:50;;;;;;;1.65;1.55;;;18.90;99.90;;;;;;10249177;28;20230;-81
2022/09/20 03:24:55;;;;;;;2.25;1.73;;;18.70;99.90;;;;;;10247267;29;20658;-81
2022/09/20 03:30:05;;;;;;;1.52;1.30;;;18.90;99.90;;;;;;10248767;28;20602;-82
2022/09/20 03:35:28;;;;;;;6.72;2.40;;;18.50;99.90;;;;;;10231633;29;20618;-81
2022/09/20 03:41:12;;;;;;;1.60;1.27;;;18.50;99.90;;;;;;10229766;29;20265;-82
2022/09/20 03:46:27;;;;;;;3.70;2.53;;;18.40;99.90;;;;;;10247433;29;20237;-82
2022/09/20 03:51:57;;;;;;;2.53;1.77;;;18.70;99.90;;;;;;10230713;29;20747;-81
2022/09/20 03:57:38;;;;;;;3.40;1.60;;;18.50;99.90;;;;;;10247231;28;20768;-82
2022/09/20 04:03:11;;;;;;;2.60;1.73;;;18.50;99.90;;;;;;10181742;29;20258;-82
2022/09/20 04:08:49;;;;;;;1.70;1.38;;;18.40;99.90;;;;;;10229777;29;20708;-81
2022/09/20 04:14:03;;;;;;;2.85;1.98;;;18.80;99.90;;;;;;10246376;28;20288;-82
2022/09/20 04:19:40;;;;;;;1.88;1.63;;;18.30;99.90;;;;;;10229496;29;20747;-82
2022/09/20 04:25:11;;;;;;;1.43;1.33;;;18.50;99.90;;;;;;10246375;28;20312;-82
2022/09/20 04:30:28;;;;;;;1.40;1.30;;;18.40;99.90;;;;;;10229824;29;20253;-82
2022/09/20 04:41:38;;;;;;;1.38;1.27;;;19.00;99.90;;;;;;10228606;29;20254;-82
2022/09/20 04:46:46;;;;;;;1.75;1.63;;;19.20;99.90;;;;;;10245654;28;20226;-82
2022/09/20 04:52:03;;;;;;;1.85;1.25;;;19.10;99.90;;;;;;10226821;29;20629;-82
2022/09/20 04:57:27;;;;;;;2.00;1.80;;;19.10;99.90;;;;;;10229239;29;20265;-82
2022/09/20 05:02:49;;;;;;;1.15;0.95;;;18.90;99.90;;;;;;10245889;29;20246;-82
2022/09/20 05:08:34;;;;;;;1.25;1.15;;;19.40;99.90;;;;;;10245810;29;20230;-82
2022/09/20 05:13:45;;;;;;;1.27;1.17;;;19.60;99.90;;;;;;10236281;29;20759;-82
2022/09/20 05:19:21;;;;;;;2.30;1.45;;;19.50;99.90;;;;;;10254390;29;20238;-82
2022/09/20 05:24:55;;;;;;;1.38;1.27;;;19.00;99.90;;;;;;10253239;29;20288;-82
2022/09/20 05:30:07;;;;;;;2.45;2.08;;;18.90;99.90;;;;;;10220571;29;20234;-82
2022/09/20 05:35:34;;;;;;;3.13;2.40;;;18.90;99.90;;;;;;10235232;29;20253;-82
2022/09/20 05:40:58;;;;;;;2.13;1.60;;;18.80;99.90;;;;;;10218648;29;20273;-82
2022/09/20 05:46:19;;;;;;;1.87;1.27;;;19.20;99.90;;;;;;10235609;28;20222;-82
2022/09/20 05:51:50;;;;;;;5.33;3.50;;;19.00;99.90;;;;;;10252684;29;20293;-82
2022/09/20 05:57:08;;;;;;;2.67;2.37;;;17.70;99.90;;;;;;10251683;29;20238;-82
2022/09/20 06:02:58;;;;;;;6.80;2.80;;;18.20;99.90;;;;;;10235813;29;20249;-82
2022/09/20 06:08:28;;;;;;;5.10;2.43;;;18.80;99.90;;;;;;10051159;29;20666;-82
2022/09/20 06:14:03;;;;;;;6.10;2.60;;;18.70;99.90;;;;;;10051756;29;20240;-82
2022/09/20 06:19:33;;;;;;;4.87;3.27;;;18.70;99.90;;;;;;9922595;29;20341;-82
2022/09/20 06:24:59;;;;;;;12.73;3.23;;;18.60;99.90;;;;;;9947843;29;20753;-82
2022/09/20 06:30:06;;;;;;;8.43;2.57;;;18.40;99.90;;;;;;9975377;29;20326;-82
2022/09/20 06:35:08;;;;;;;2.93;2.70;;;18.30;99.90;;;;;;9975260;29;20251;-82
2022/09/20 06:41:27;;;;;;;9.00;3.23;;;17.80;99.90;;;;;;9974767;29;20262;-82
2022/09/20 06:46:21;;;;;;;4.07;2.70;;;17.60;99.90;;;;;;10088263;29;20275;-82
2022/09/20 06:51:26;;;;;;;2.40;2.20;;;18.60;99.90;;;;;;10073623;29;20797;-82
2022/09/20 06:56:31;;;;;;;5.03;2.90;;;18.10;99.90;;;;;;10174063;29;20254;-83
2022/09/20 07:01:34;;;;;;;4.20;2.80;;;18.00;99.90;;;;;;10210297;29;20312;-82
2022/09/20 07:06:36;;;;;;;3.20;1.92;;;18.30;99.90;;;;;;10209666;29;20242;-82
2022/09/20 07:11:39;;;;;;;3.13;2.10;;;19.10;99.90;;;;;;10192628;29;20314;-82
2022/09/20 07:16:41;;;;;;;15.10;2.53;;;18.50;99.90;;;;;;10209725;29;20234;-82
2022/09/20 07:21:44;;;;;;;4.68;2.33;;;18.90;99.90;;;;;;10209167;29;20706;-83
2022/09/20 07:27:02;;;;;;;3.38;2.55;;;19.20;99.90;;;;;;10208901;29;20235;-83
2022/09/20 07:32:04;;;;;;;3.63;2.47;;;19.00;99.90;;;;;;10191796;29;20269;-82
2022/09/20 07:37:07;;;;;;;4.87;2.57;;;18.50;99.90;;;;;;10208145;29;20266;-82
2022/09/20 07:42:10;;;;;;;2.67;2.47;;;18.40;99.90;;;;;;10207811;29;20301;-82
2022/09/20 07:47:13;;;;;;;2.77;1.90;;;17.90;99.90;;;;;;10248386;29;20258;-83
2022/09/20 07:52:17;;;;;;;3.13;1.83;;;18.90;99.90;;;;;;10230669;29;20370;-82
2022/09/20 07:57:19;;;;;;;3.43;2.40;;;18.80;99.90;;;;;;10248532;29;20234;-82
2022/09/20 08:02:22;;;;;;;2.50;2.28;;;18.80;99.90;;;;;;10254930;28;20614;-82
2022/09/20 08:07:24;;;;;;;2.38;2.13;;;18.50;99.90;;;;;;10287288;28;20233;-82
2022/09/20 08:12:27;;;;;;;2.90;2.38;;;19.00;99.90;;;;;;10253775;28;20566;-82
2022/09/20 08:17:49;;;;;;;2.50;2.30;;;19.50;99.90;;;;;;10269292;28;20665;-82
2022/09/20 08:22:54;;;;;;;3.20;2.30;;;18.50;99.90;;;;;;10287129;28;20260;-82
2022/09/20 08:28:16;;;;;;;3.83;3.30;;;18.70;99.90;;;;;;10256270;28;20241;-82
2022/09/20 08:33:18;;;;;;;2.28;2.08;;;17.60;99.90;;;;;;10286845;28;20824;-82
2022/09/20 08:38:25;;;;;;;2.97;2.27;;;19.00;99.90;;;;;;10286443;28;20292;-83
2022/09/20 08:43:57;;;;;;;1.87;1.77;;;18.50;99.90;;;;;;10272402;28;20296;-82
2022/09/20 08:49:02;;;;;;;4.13;2.00;;;18.20;99.90;;;;;;10277600;28;20257;-82
2022/09/20 08:54:15;;;;;;;2.20;2.00;;;18.00;99.90;;;;;;10276175;28;20244;-82
2022/09/20 08:59:21;;;;;;;2.60;2.13;;;18.40;99.90;;;;;;10294650;28;20307;-82
2022/09/20 09:04:30;;;;;;;2.60;2.10;;;18.90;99.90;;;;;;10281805;28;20258;-82
2022/09/20 09:09:36;;;;;;;2.03;1.48;;;19.70;99.90;;;;;;10207476;29;20277;-82
2022/09/20 09:14:48;;;;;;;3.97;2.25;;;19.60;99.90;;;;;;10197294;29;20238;-82
2022/09/20 09:19:53;;;;;;;1.80;1.60;;;19.70;99.90;;;;;;10196670;29;20293;-82
2022/09/20 09:25:19;;;;;;;3.83;1.90;;;19.10;99.90;;;;;;10180097;29;20289;-82
2022/09/20 09:30:33;;;;;;;1.80;1.50;;;18.30;99.90;;;;;;10214006;29;20281;-82
2022/09/20 09:35:36;;;;;;;2.00;1.80;;;19.30;99.90;;;;;;10195628;29;20672;-83
2022/09/20 09:40:49;;;;;;;2.57;1.97;;;18.60;99.90;;;;;;10195953;29;20302;-83
2022/09/20 09:45:52;;;;;;;2.23;2.03;;;18.50;99.90;;;;;;10212304;29;20247;-82
2022/09/20 09:51:08;;;;;;;1.80;1.70;;;18.50;99.90;;;;;;10195304;29;20235;-82
2022/09/20 09:56:20;;;;;;;2.90;2.33;;;18.70;99.90;;;;;;10212009;29;20245;-82
2022/09/20 10:01:49;;;;;;;1.83;1.60;;;18.10;99.90;;;;;;10179460;29;20631;-82
2022/09/20 10:07:13;;;;;;;2.47;1.90;;;17.80;99.90;;;;;;10013905;29;20706;-82
2022/09/20 10:12:28;;;;;;;3.90;1.63;;;18.70;99.90;;;;;;10013857;29;20250;-82
2022/09/20 10:17:49;;;;;;;3.63;1.67;;;18.70;99.90;;;;;;10013659;29;20339;-82
2022/09/20 10:23:04;;;;;;;1.80;1.43;;;17.60;99.90;;;;;;10012841;29;20273;-82
2022/09/20 10:28:47;;;;;;;1.30;1.20;;;18.30;99.90;;;;;;10010468;29;20717;-82
2022/09/20 10:34:18;;;;;;;1.90;1.70;;;18.90;99.90;;;;;;10013235;29;20298;-82
2022/09/20 10:39:30;;;;;;;2.30;1.77;;;18.70;99.90;;;;;;10012743;29;20282;-82
2022/09/20 10:44:57;;;;;;;2.40;1.67;;;19.00;99.90;;;;;;10177239;29;20262;-82
2022/09/20 10:50:27;;;;;;;2.37;1.73;;;18.10;99.90;;;;;;10211029;29;20262;-82
2022/09/20 10:55:46;;;;;;;2.80;1.50;;;19.00;99.90;;;;;;10210552;29;20210;-82
2022/09/20 11:01:28;;;;;;;1.40;1.30;;;19.30;99.90;;;;;;10211331;29;20203;-82
2022/09/20 11:06:49;;;;;;;1.83;1.63;;;18.00;99.90;;;;;;10201887;29;20309;-82
2022/09/20 11:11:59;;;;;;;4.03;2.80;;;19.00;99.90;;;;;;10193009;29;20295;-82
2022/09/20 11:17:28;;;;;;;1.27;1.10;;;19.40;99.90;;;;;;10192437;29;20211;-82
2022/09/20 11:22:38;;;;;;;2.20;1.57;;;18.90;99.90;;;;;;10191955;29;20424;-82
2022/09/20 11:28:00;;;;;;;2.40;1.23;;;19.20;99.90;;;;;;10192966;29;20271;-82
2022/09/20 11:33:27;;;;;;;2.37;1.13;;;18.70;99.90;;;;;;10192386;29;20765;-82
2022/09/20 11:38:39;;;;;;;1.67;1.03;;;18.60;99.70;;;;;;10176352;29;20309;-82
2022/09/20 11:43:44;;;;;;;1.30;1.20;;;18.90;99.90;;;;;;10191312;29;20290;-82
2022/09/20 11:48:50;;;;;;;0.90;0.83;;;18.50;99.90;;;;;;10190527;29;20258;-82
2022/09/20 11:53:55;;;;;;;1.30;1.20;;;17.90;99.90;;;;;;10152035;29;20270;-82
2022/09/20 11:59:03;;;;;;;1.50;1.13;;;19.30;99.90;;;;;;10168900;29;20243;-82
2022/09/20 12:04:17;;;;;;;1.40;1.20;;;19.40;98.80;;;;;;10152154;29;20235;-82
2022/09/20 12:09:37;;;;;;;1.15;0.75;;;20.10;99.90;;;;;;10168620;29;20316;-82
2022/09/20 12:14:41;;;;;;;1.73;1.15;;;18.80;99.60;;;;;;10152015;29;20259;-82
2022/09/20 12:19:44;;;;;;;2.63;1.10;;;19.00;96.80;;;;;;10150594;29;20239;-82
2022/09/20 12:25:27;;;;;;;1.20;1.10;;;18.80;99.90;;;;;;10151744;29;20279;-82
2022/09/20 12:30:31;;;;;;;1.27;1.17;;;19.10;99.90;;;;;;10151475;29;20636;-82
2022/09/20 12:35:43;;;;;;;1.60;1.25;;;19.50;99.90;;;;;;10169533;29;20612;-82
2022/09/20 12:41:03;;;;;;;1.38;1.27;;;19.80;99.90;;;;;;10167910;29;20619;-82
2022/09/20 12:46:06;;;;;;;0.85;0.73;;;19.90;99.90;;;;;;10151800;29;20626;-82
2022/09/20 12:56:54;;;;;;;1.50;0.70;;;20.10;99.90;;;;;;10183513;29;20251;-83
2022/09/20 13:02:16;;;;;;;3.57;0.70;;;;;;;;;;10189883;29;20239;-83
2022/09/20 13:07:31;;;;;;;1.70;0.67;;;13.50;99.90;;;;;;10190114;29;20683;-82
2022/09/20 13:12:36;;;;;;;2.93;1.17;;;13.40;99.90;;;;;;10207237;29;20222;-82
2022/09/20 13:17:40;;;;;;;1.40;0.83;;;13.60;99.90;;;;;;10204693;29;20293;-82
2022/09/20 13:22:44;;;;;;;1.30;0.70;;;14.00;99.90;;;;;;10206388;29;20282;-82
2022/09/20 13:28:06;;;;;;;1.10;1.00;;;14.70;99.90;;;;;;10188490;29;20290;-82
2022/09/20 13:33:34;;;;;;;1.80;0.90;;;14.60;99.90;;;;;;10196279;29;20206;-82
2022/09/20 13:38:37;;;;;;;1.03;0.70;;;15.60;99.90;;;;;;10169874;29;20719;-81
2022/09/20 13:43:42;;;;;;;0.77;0.47;;;17.40;99.90;;;;;;10156536;29;20326;-81
2022/09/20 13:49:10;;;;;;;2.73;0.60;;;18.70;99.90;;;;;;10173653;29;20285;-81
2022/09/20 13:54:32;;;;;;;0.50;0.20;;;18.80;99.90;;;;;;10173640;29;20716;-81
2022/09/20 13:59:41;;;;;;;2.90;0.40;;;18.10;99.90;;;;;;10174259;29;20559;-81
2022/09/20 14:04:43;;;;;;;0.37;0.17;;;19.00;99.90;;;;;;10173513;29;20258;-81
2022/09/20 14:09:45;;;;;;;1.90;0.67;;;18.40;99.90;;;;;;10172878;29;20235;-81
2022/09/20 14:14:50;;;;;;;1.10;0.70;;;18.10;99.90;;;;;;10173348;29;20239;-82
2022/09/20 14:19:53;;;;;;;0.82;0.35;;;18.70;99.90;;;;;;10172474;29;20227;-81
2022/09/20 14:25:26;;;;;;;0.77;0.60;;;19.20;97.30;;;;;;10172136;29;20298;-81
2022/09/20 14:30:31;;;;;;;0.30;0.20;;;18.80;99.90;;;;;;10170978;29;20251;-81
2022/09/20 14:35:33;;;;;;;0.57;0.40;;;18.10;99.90;;;;;;10170836;29;20227;-81
2022/09/20 14:40:47;;;;;;;0.43;0.40;;;18.30;99.90;;;;;;10171935;29;20751;-81
2022/09/20 14:46:00;;;;;;;2.00;0.50;;;19.00;98.10;;;;;;10154891;29;20653;-81
2022/09/20 14:51:14;;;;;;;4.77;0.80;;;18.40;99.90;;;;;;10171508;29;20275;-81
2022/09/20 14:56:48;;;;;;;1.00;0.50;;;18.70;99.90;;;;;;10154315;29;20267;-81
2022/09/20 15:01:59;;;;;;;0.70;0.50;;;19.10;99.90;;;;;;10152143;29;20669;-81
2022/09/20 15:07:07;;;;;;;1.20;0.50;;;17.60;99.90;;;;;;10168917;29;20263;-81
2022/09/20 15:12:14;;;;;;;0.47;0.33;;;18.80;98.70;;;;;;10171883;29;20294;-81
2022/09/20 15:17:19;;;;;;;1.83;0.60;;;18.90;99.90;;;;;;10170782;29;20290;-81
2022/09/20 15:22:22;;;;;;;0.70;0.50;;;18.20;99.90;;;;;;10152976;29;20560;-81
2022/09/20 15:27:24;;;;;;;1.90;0.70;;;19.20;99.90;;;;;;10165812;29;20717;-82
2022/09/20 15:32:30;;;;;;;1.27;0.60;;;;;;;;;;10192215;29;20238;-81
2022/09/20 15:37:32;;;;;;;0.70;0.40;;;14.30;99.90;;;;;;10208449;29;20270;-81
2022/09/20 15:42:36;;;;;;;2.30;0.70;;;14.40;99.90;;;;;;10208515;29;20297;-81
2022/09/20 15:47:39;;;;;;;2.33;0.70;;;14.10;99.90;;;;;;10209042;29;20639;-81
2022/09/20 15:52:42;;;;;;;2.07;0.60;;;14.10;99.90;;;;;;10191870;29;20263;-81
2022/09/20 15:57:45;;;;;;;1.40;0.70;;;13.90;99.90;;;;;;10191803;29;20621;-81
2022/09/20 16:02:48;;;;;;;1.83;0.90;;;13.80;99.90;;;;;;10207040;29;20688;-80
2022/09/20 16:07:51;;;;;;;1.07;0.80;;;14.00;99.90;;;;;;10190996;29;20796;-80
2022/09/20 16:12:53;;;;;;;1.33;0.70;;;13.80;99.90;;;;;;10209021;29;20245;-81
2022/09/20 16:23:17;;;;;;;1.67;0.70;;;13.70;99.90;;;;;;10193623;29;20281;-83
2022/09/20 16:28:27;;;;;;;2.30;1.20;;;13.50;99.90;;;;;;10190065;29;20233;-82
2022/09/20 16:33:31;;;;;;;1.73;1.00;;;13.30;99.90;;;;;;10190817;29;20309;-82
2022/09/20 16:38:35;;;;;;;1.07;0.70;;;13.20;99.90;;;;;;10206561;29;20315;-81
2022/09/20 16:43:39;;;;;;;2.20;1.50;;;12.90;99.90;;;;;;10206998;29;20281;-81
2022/09/20 16:48:42;;;;;;;2.10;1.23;;;12.80;99.90;;;;;;10207979;29;20657;-80
2022/09/20 16:53:45;;;;;;;1.43;1.00;;;12.60;99.90;;;;;;10189957;29;20226;-80
2022/09/20 16:58:49;;;;;;;2.13;1.40;;;12.50;99.90;;;;;;10190859;29;20264;-81
2022/09/20 17:03:53;;;;;;;3.70;1.93;;;12.50;99.90;;;;;;10189273;29;20269;-81
2022/09/20 17:08:59;;;;;;;5.07;2.33;;;12.40;99.90;;;;;;10196500;29;20243;-81
2022/09/20 17:14:03;;;;;;;3.50;2.17;;;12.30;99.90;;;;;;10213727;29;20238;-81
2022/09/20 17:19:09;;;;;;;4.33;2.70;;;12.20;99.90;;;;;;10213609;29;20228;-80
2022/09/20 17:24:13;;;;;;;5.47;2.60;;;12.10;99.90;;;;;;10213034;29;20244;-81
2022/09/20 17:29:17;;;;;;;2.63;2.27;;;12.00;99.90;;;;;;10213514;29;20231;-80
2022/09/20 17:34:21;;;;;;;7.33;4.23;;;11.70;99.90;;;;;;10195990;29;20763;-80
2022/09/20 17:39:24;;;;;;;31.73;16.53;;;11.60;99.90;;;;;;10212330;29;20750;-81
2022/09/20 17:44:27;;;;;;;8.23;3.57;;;11.70;99.90;;;;;;10195914;29;20302;-80
2022/09/20 17:49:30;;;;;;;5.80;3.23;;;13.60;99.90;;;;;;10179151;29;20292;-81
2022/09/20 17:54:32;;;;;;;4.50;2.13;;;17.30;99.90;;;;;;10194998;29;20282;-81
2022/09/20 17:59:35;;;;;;;5.33;3.33;;;18.80;99.90;;;;;;10212645;29;20238;-81
2022/09/20 18:04:38;;;;;;;5.87;3.90;;;19.40;99.90;;;;;;10195273;29;20329;-81
2022/09/20 18:09:40;;;;;;;4.90;2.90;;;19.70;99.90;;;;;;10209890;29;20302;-81
2022/09/20 18:14:42;;;;;;;4.90;2.75;;;20.00;99.90;;;;;;10212113;29;20238;-81
2022/09/20 18:19:45;;;;;;;6.43;3.28;;;20.10;99.90;;;;;;10210930;29;20285;-81
2022/09/20 18:24:47;;;;;;;6.28;3.22;;;20.20;99.90;;;;;;10211816;29;20258;-81
2022/09/20 18:29:50;;;;;;;3.13;2.30;;;20.30;99.90;;;;;;10212172;29;20203;-81
2022/09/20 18:34:52;;;;;;;4.32;2.95;;;20.40;99.90;;;;;;10211932;29;20226;-81
2022/09/20 18:39:55;;;;;;;6.07;3.00;;;20.40;99.90;;;;;;10159933;29;20818;-81
2022/09/20 18:44:58;;;;;;;3.35;2.45;;;20.50;99.90;;;;;;10138353;29;20260;-81
2022/09/20 18:50:01;;;;;;;3.83;2.75;;;20.50;99.90;;;;;;10116449;29;20232;-81
2022/09/20 18:55:07;;;;;;;3.90;2.42;;;20.40;99.90;;;;;;10115666;29;20236;-81
2022/09/20 19:00:13;;;;;;;3.42;2.83;;;20.40;99.90;;;;;;10100186;29;20699;-81
2022/09/20 19:05:33;;;;;;;3.13;2.30;;;20.50;99.90;;;;;;10131672;29;20288;-81
2022/09/20 19:10:50;;;;;;;3.60;2.70;;;20.40;99.90;;;;;;10143015;29;20235;-81
2022/09/20 19:15:59;;;;;;;2.92;2.20;;;20.40;99.90;;;;;;10141158;29;20235;-81
2022/09/20 19:21:43;;;;;;;3.35;2.38;;;20.50;99.90;;;;;;10114568;29;20216;-82
2022/09/20 19:26:46;;;;;;;2.97;2.08;;;20.50;99.90;;;;;;10130383;29;20675;-81
2022/09/20 19:31:52;;;;;;;4.00;2.50;;;20.40;99.90;;;;;;10112469;29;20802;-81
2022/09/20 19:37:17;;;;;;;3.45;2.42;;;20.40;99.90;;;;;;10132356;29;20323;-81
2022/09/20 19:43:24;;;;;;;5.75;2.78;;;20.40;99.90;;;;;;10160635;29;20294;-83
2022/09/20 19:48:38;;;;;;;3.08;1.98;;;20.40;99.90;;;;;;9933696;29;20280;-82
2022/09/20 19:53:40;;;;;;;4.45;2.42;;;20.40;99.90;;;;;;9919215;29;20255;-81
2022/09/20 19:58:45;;;;;;;3.42;2.25;;;20.40;99.90;;;;;;9902858;29;20239;-81
2022/09/20 20:03:49;;;;;;;2.85;2.25;;;20.40;99.90;;;;;;9928641;29;20248;-81
2022/09/20 20:09:04;;;;;;;5.07;2.40;;;20.40;99.90;;;;;;9934538;29;20321;-81
2022/09/20 20:14:24;;;;;;;3.58;2.08;;;20.40;99.90;;;;;;9934189;29;20246;-81
2022/09/20 20:19:45;;;;;;;3.83;2.20;;;20.30;99.90;;;;;;9944394;29;20286;-81
2022/09/20 20:24:51;;;;;;;2.85;2.25;;;20.30;99.90;;;;;;10144130;29;20631;-81
2022/09/20 20:29:54;;;;;;;2.55;2.05;;;20.30;99.90;;;;;;10167275;29;20688;-81
2022/09/20 20:34:56;;;;;;;3.95;2.20;;;20.30;99.90;;;;;;10132849;29;20297;-82
2022/09/20 20:39:59;;;;;;;2.83;2.00;;;20.40;99.90;;;;;;10141370;29;20260;-81
2022/09/20 20:45:01;;;;;;;3.10;2.22;;;20.40;99.90;;;;;;10137201;29;20314;-81
2022/09/20 20:50:04;;;;;;;4.38;2.67;;;20.40;99.90;;;;;;10137091;29;20232;-81
2022/09/20 20:55:07;;;;;;;2.00;1.73;;;20.30;99.90;;;;;;10134883;29;20240;-81
2022/09/20 21:00:10;;;;;;;3.42;2.20;;;20.30;99.90;;;;;;10136133;29;20240;-81
2022/09/20 21:05:14;;;;;;;2.83;2.42;;;20.30;99.90;;;;;;10135185;29;20855;-81
2022/09/20 21:10:16;;;;;;;3.33;2.38;;;20.30;99.90;;;;;;10135244;29;20244;-81
2022/09/20 21:15:20;;;;;;;3.10;2.33;;;20.30;99.90;;;;;;10118627;29;20232;-81
2022/09/20 21:20:22;;;;;;;4.70;2.50;;;20.30;99.90;;;;;;10136259;29;20295;-81
2022/09/20 21:25:25;;;;;;;3.45;2.20;;;20.40;99.90;;;;;;10117815;29;20260;-81
2022/09/20 21:30:28;;;;;;;3.08;1.98;;;20.30;99.90;;;;;;10135779;29;20256;-81
2022/09/20 21:35:30;;;;;;;2.95;2.28;;;20.30;99.90;;;;;;10135308;29;20244;-81
2022/09/20 21:40:32;;;;;;;2.70;2.10;;;20.40;99.90;;;;;;10123849;29;20315;-81
2022/09/20 21:45:38;;;;;;;2.90;2.15;;;20.40;99.90;;;;;;10134973;29;20251;-81
2022/09/20 21:50:40;;;;;;;2.80;2.03;;;20.40;99.90;;;;;;10134174;29;20240;-81
2022/09/20 21:55:43;;;;;;;2.15;1.67;;;20.30;99.90;;;;;;10134106;29;20252;-81
2022/09/20 22:00:55;;;;;;;2.58;2.33;;;20.30;99.90;;;;;;10117790;29;20239;-81
2022/09/20 22:06:04;;;;;;;3.50;2.40;;;20.30;99.90;;;;;;10134564;29;20255;-81
2022/09/20 22:11:08;;;;;;;3.47;2.35;;;20.30;99.90;;;;;;10116330;29;20766;-81
2022/09/20 22:16:17;;;;;;;3.70;2.10;;;20.30;99.90;;;;;;10171023;29;20239;-81
2022/09/20 22:21:24;;;;;;;2.13;1.85;;;20.20;99.90;;;;;;10144830;29;20272;-81
2022/09/20 22:26:36;;;;;;;3.25;2.13;;;20.30;99.90;;;;;;10115940;29;20264;-81
2022/09/20 22:31:43;;;;;;;3.75;2.35;;;20.20;99.90;;;;;;10132900;29;20236;-81
2022/09/20 22:36:46;;;;;;;2.53;2.03;;;20.20;99.90;;;;;;10131927;29;20737;-81
2022/09/20 22:41:49;;;;;;;3.40;2.22;;;20.20;99.90;;;;;;10116023;29;20224;-81
2022/09/20 22:46:52;;;;;;;2.00;1.80;;;20.20;99.90;;;;;;10132666;29;20268;-81
2022/09/20 22:51:54;;;;;;;3.08;2.13;;;20.20;99.90;;;;;;10131303;29;20598;-81
2022/09/20 22:56:56;;;;;;;2.40;2.17;;;20.20;99.90;;;;;;10115148;29;20280;-81
2022/09/20 23:01:59;;;;;;;2.15;1.63;;;20.20;99.90;;;;;;10115705;29;20228;-81
2022/09/20 23:07:01;;;;;;;3.08;2.42;;;20.10;99.90;;;;;;10131396;29;20260;-81
2022/09/20 23:12:04;;;;;;;3.95;1.83;;;20.10;99.90;;;;;;10114378;29;20252;-81
2022/09/20 23:17:06;;;;;;;3.05;2.28;;;20.20;99.90;;;;;;10131889;29;20295;-81
2022/09/20 23:22:08;;;;;;;2.63;2.33;;;20.10;99.90;;;;;;10130991;29;20240;-81
2022/09/20 23:27:11;;;;;;;2.65;1.98;;;20.10;99.90;;;;;;10114384;29;20323;-82
2022/09/20 23:32:13;;;;;;;2.60;1.95;;;20.00;99.90;;;;;;10130662;29;20680;-81
2022/09/20 23:37:16;;;;;;;4.15;2.47;;;20.00;99.90;;;;;;10130067;29;20733;-81
2022/09/20 23:42:18;;;;;;;3.17;2.40;;;20.10;99.90;;;;;;10113197;29;20268;-81
2022/09/20 23:47:20;;;;;;;3.55;2.08;;;20.10;99.90;;;;;;10129981;29;20260;-81
2022/09/20 23:52:23;;;;;;;4.30;2.03;;;20.10;99.90;;;;;;10130144;29;20189;-81
2022/09/20 23:57:25;;;;;;;3.78;2.20;;;20.10;99.90;;;;;;10130011;29;20272;-81
